Meteorología y climatología de Navarra
Datos de la estación - Meteo Navarra

Estación de Aguilar de Codés GN

Altitud 736 m.


Datos desde el 30/06/2020 hasta el 01/07/2020 en horario solar
Los datos son PROVISIONALES

Anterior Página 1 de 1 Siguiente Descargar: Formato para Excel 2000 o superior   Formato csv   Formato para OpenOffice Calc
Fecha Temperatura Humedad relativa Radiación global Insolación Precipitación Vel. viento 10 m Vel. viento 10 m Dir. viento 10 m
ºC % W/m² s l/m² m/s km/h º
30/06/2020 0:00 12.5 94 0.0 0 0.0 4.6 16.7 314
30/06/2020 0:10 12.5 94 0.0 0 0.0 5.0 17.9 317
30/06/2020 0:20 12.5 94 0.0 0 0.0 4.9 17.7 317
30/06/2020 0:30 12.2 94 0.0 0 0.0 4.5 16.3 313
30/06/2020 0:40 12.2 95 0.0 0 0.0 5.2 18.8 313
30/06/2020 0:50 12.0 95 0.0 0 0.0 4.4 15.7 313
30/06/2020 1:00 11.7 96 0.0 0 0.0 4.3 15.6 320
30/06/2020 1:10 11.8 96 0.0 0 0.0 3.9 14.2 319
30/06/2020 1:20 11.8 96 0.0 0 0.0 3.9 14.1 316
30/06/2020 1:30 11.8 96 0.0 0 0.0 3.7 13.3 309
30/06/2020 1:40 11.9 97 0.0 0 0.0 2.8 10.0 300
30/06/2020 1:50 11.9 97 0.0 0 0.0 2.0 7.2 297
30/06/2020 2:00 12.0 97 0.0 0 0.0 2.4 8.6 310
30/06/2020 2:10 11.9 97 0.0 0 0.0 3.0 10.9 297
30/06/2020 2:20 11.8 97 0.0 0 0.0 3.2 11.6 309
30/06/2020 2:30 11.7 97 0.0 0 0.0 2.6 9.3 291
30/06/2020 2:40 11.7 97 0.0 0 0.0 2.5 8.8 283
30/06/2020 2:50 11.8 97 0.0 0 0.0 2.5 9.0 279
30/06/2020 3:00 11.7 97 0.0 0 0.0 2.8 9.9 286
30/06/2020 3:10 11.5 97 0.0 0 0.0 4.4 15.7 303
30/06/2020 3:20 11.3 97 0.0 0 0.0 4.3 15.6 299
30/06/2020 3:30 11.4 98 0.0 0 0.0 3.7 13.1 287
30/06/2020 3:40 11.3 98 0.0 0 0.0 3.4 12.1 297
30/06/2020 3:50 11.2 98 0.0 0 0.0 3.6 12.9 295
30/06/2020 4:00 11.0 98 0.0 0 0.0 3.7 13.4 291
30/06/2020 4:10 10.9 98 0.0 0 0.0 3.9 14.1 287
30/06/2020 4:20 10.7 98 0.0 0 0.0 3.9 13.9 295
30/06/2020 4:30 10.8 98 0.0 0 0.0 4.1 14.9 298
30/06/2020 4:40 10.9 98 0.0 0 0.0 5.1 18.3 297
30/06/2020 4:50 11.0 97 0.9 0 0.0 4.2 15.2 294
30/06/2020 5:00 11.4 94 16.9 0 0.0 4.2 15.2 301
30/06/2020 5:10 11.7 90 21.7 0 0.0 3.9 13.9 312
30/06/2020 5:20 11.5 89 27.4 0 0.0 3.0 10.7 302
30/06/2020 5:30 11.7 87 87.3 558 0.0 2.9 10.3 303
30/06/2020 5:40 12.5 82 115.4 600 0.0 2.6 9.3 299
30/06/2020 5:50 12.6 81 142.9 600 0.0 3.0 10.7 290
30/06/2020 6:00 12.9 81 172.1 600 0.0 3.5 12.7 293
30/06/2020 6:10 13.2 76 202.9 600 0.0 3.4 12.2 297
30/06/2020 6:20 13.8 73 233.3 600 0.0 2.9 10.4 310
30/06/2020 6:30 14.5 69 263.0 600 0.0 3.1 11.3 312
30/06/2020 6:40 14.8 64 293.1 600 0.0 3.0 10.6 310
30/06/2020 6:50 15.2 61 322.4 600 0.0 3.2 11.5 308
30/06/2020 7:00 15.2 62 354.9 600 0.0 3.1 11.3 308
30/06/2020 7:10 15.9 59 386.9 600 0.0 3.1 11.0 309
30/06/2020 7:20 16.4 60 418.3 600 0.0 3.3 11.8 314
30/06/2020 7:30 16.9 57 452.4 600 0.0 2.8 10.1 309
30/06/2020 7:40 17.4 52 482.7 600 0.0 2.8 10.0 312
30/06/2020 7:50 17.9 48 513.0 600 0.0 2.7 9.8 314
30/06/2020 8:00 18.4 45 545.2 600 0.0 2.9 10.5 325
30/06/2020 8:10 18.8 41 576.6 600 0.0 3.1 11.2 319
30/06/2020 8:20 19.5 37 606.9 600 0.0 1.9 6.8 310
30/06/2020 8:30 20.2 34 636.3 600 0.0 1.5 5.2 289
30/06/2020 8:40 21.0 31 662.9 600 0.0 1.3 4.6 277
30/06/2020 8:50 21.5 31 688.3 600 0.0 0.9 3.2 302
30/06/2020 9:00 22.1 31 714.1 600 0.0 0.5 1.6 248
30/06/2020 9:10 22.9 28 738.3 600 0.0 1.3 4.5 116
30/06/2020 9:20 22.7 27 763.3 600 0.0 1.2 4.2 190
30/06/2020 9:30 22.9 29 785.7 600 0.0 1.4 5.0 173
30/06/2020 9:40 23.3 34 809.0 600 0.0 1.3 4.6 120
30/06/2020 9:50 23.2 36 831.0 600 0.0 1.1 4.1 177
30/06/2020 10:00 23.8 33 852.0 600 0.0 1.5 5.3 136
30/06/2020 10:10 24.0 31 870.0 600 0.0 1.2 4.2 109
30/06/2020 10:20 24.3 33 887.0 600 0.0 1.4 5.1 139
30/06/2020 10:30 24.5 35 903.0 600 0.0 2.2 8.1 126
30/06/2020 10:40 24.5 41 916.0 600 0.0 1.7 6.2 120
30/06/2020 10:50 24.7 44 929.0 600 0.0 1.8 6.6 127
30/06/2020 11:00 25.2 40 943.0 600 0.0 2.3 8.2 95
30/06/2020 11:10 25.4 39 955.0 600 0.0 2.1 7.7 131
30/06/2020 11:20 25.1 39 964.0 600 0.0 2.9 10.4 134
30/06/2020 11:30 25.3 41 972.0 600 0.0 2.6 9.3 150
30/06/2020 11:40 25.7 40 978.0 600 0.0 2.2 7.9 120
30/06/2020 11:50 26.0 40 981.0 600 0.0 2.3 8.1 127
30/06/2020 12:00 26.3 41 983.0 600 0.0 2.6 9.2 142
30/06/2020 12:10 26.9 40 985.0 600 0.0 2.1 7.5 135
30/06/2020 12:20 26.5 42 982.0 600 0.0 2.6 9.3 162
30/06/2020 12:30 27.0 42 979.0 600 0.0 2.7 9.5 111
30/06/2020 12:40 27.2 43 976.0 600 0.0 1.8 6.3 101
30/06/2020 12:50 27.8 42 969.0 600 0.0 2.2 8.0 94
30/06/2020 13:00 27.4 44 962.0 600 0.0 2.3 8.2 114
30/06/2020 13:10 27.6 43 956.0 600 0.0 2.1 7.6 118
30/06/2020 13:20 27.5 44 948.0 600 0.0 1.8 6.4 101
30/06/2020 13:30 28.2 42 936.0 600 0.0 2.1 7.7 124
30/06/2020 13:40 27.6 42 924.0 600 0.0 2.3 8.1 130
30/06/2020 13:50 28.1 42 909.0 600 0.0 2.7 9.7 119
30/06/2020 14:00 28.1 42 896.0 600 0.0 2.3 8.1 141
30/06/2020 14:10 28.3 41 878.0 600 0.0 2.7 9.7 122
30/06/2020 14:20 28.1 41 860.0 600 0.0 3.3 11.7 145
30/06/2020 14:30 28.2 41 843.0 600 0.0 2.4 8.7 123
30/06/2020 14:40 28.5 40 828.0 600 0.0 3.0 10.9 138
30/06/2020 14:50 28.7 40 810.0 600 0.0 3.0 10.7 111
30/06/2020 15:00 29.4 38 784.3 600 0.0 1.9 6.9 104
30/06/2020 15:10 28.9 39 754.8 600 0.0 2.8 10.1 133
30/06/2020 15:20 28.8 39 737.6 600 0.0 3.3 11.8 114
30/06/2020 15:30 28.9 38 712.0 600 0.0 2.4 8.7 115
30/06/2020 15:40 29.2 38 684.1 600 0.0 3.4 12.2 118
30/06/2020 15:50 28.7 38 659.9 600 0.0 2.6 9.3 124
30/06/2020 16:00 29.7 36 639.1 600 0.0 2.4 8.8 105
30/06/2020 16:10 29.8 36 620.4 600 0.0 2.1 7.5 102
30/06/2020 16:20 29.8 36 607.1 600 0.0 2.4 8.6 112
30/06/2020 16:30 29.4 35 592.7 600 0.0 1.4 5.0 116
30/06/2020 16:40 29.6 36 579.5 600 0.0 2.8 10.0 105
30/06/2020 16:50 29.5 36 551.0 600 0.0 3.0 10.8 119
30/06/2020 17:00 29.4 37 538.6 600 0.0 2.8 10.1 115
30/06/2020 17:10 28.6 38 506.7 600 0.0 4.9 17.6 125
30/06/2020 17:20 27.8 40 479.7 600 0.0 4.2 15.2 138
30/06/2020 17:30 28.1 40 460.6 600 0.0 3.5 12.7 140
30/06/2020 17:40 27.6 40 363.1 550 0.0 4.4 16.0 148
30/06/2020 17:50 27.0 41 274.6 452 0.0 3.7 13.2 169
30/06/2020 18:00 26.6 42 291.5 600 0.0 3.4 12.3 163
30/06/2020 18:10 26.4 43 201.1 380 0.0 3.2 11.6 170
30/06/2020 18:20 25.8 45 103.9 112 0.0 4.4 16.0 184
30/06/2020 18:30 25.0 49 81.9 48 0.0 4.5 16.2 187
30/06/2020 18:40 24.3 55 178.4 600 0.0 3.7 13.4 195
30/06/2020 18:50 23.8 63 140.3 600 0.1 4.9 17.5 183
30/06/2020 19:00 22.6 71 108.9 600 0.0 2.8 10.2 67
30/06/2020 19:10 22.3 72 70.5 336 0.0 1.0 3.6 162
30/06/2020 19:20 22.2 74 63.4 600 0.0 1.8 6.4 232
30/06/2020 19:30 22.4 71 63.4 600 0.1 1.4 5.0 273
30/06/2020 19:40 22.3 69 41.9 472 0.0 1.9 6.9 114
30/06/2020 19:50 21.3 78 8.4 0 0.0 1.4 4.9 343
30/06/2020 20:00 20.9 78 7.4 0 0.0 1.7 5.9 236
30/06/2020 20:10 21.2 74 0.0 0 0.0 1.1 4.0 275
30/06/2020 20:20 21.0 74 0.0 0 0.0 0.9 3.1 272
30/06/2020 20:30 20.7 74 0.0 0 0.0 1.2 4.2 278
30/06/2020 20:40 21.2 69 0.0 0 0.0 1.0 3.6 237
30/06/2020 20:50 21.4 66 0.0 0 0.0 4.6 16.5 184
30/06/2020 21:00 21.4 67 0.0 0 0.0 1.1 3.9 89
30/06/2020 21:10 20.0 75 0.0 0 0.0 1.9 6.9 84
30/06/2020 21:20 19.6 78 0.0 0 0.0 1.7 6.2 138
30/06/2020 21:30 19.9 75 0.0 0 0.0 1.1 4.1 82
30/06/2020 21:40 19.6 75 0.0 0 0.0 0.9 3.3 125
30/06/2020 21:50 19.5 76 0.0 0 0.0 1.2 4.2 59
30/06/2020 22:00 19.3 76 0.0 0 0.0 1.4 4.9 325
30/06/2020 22:10 19.1 76 0.0 0 0.0 0.5 1.8 95
30/06/2020 22:20 18.9 77 0.0 0 0.0 1.4 5.0 342
30/06/2020 22:30 19.3 73 0.0 0 0.0 0.5 1.9 288
30/06/2020 22:40 19.5 71 0.0 0 0.0 1.2 4.4 320
30/06/2020 22:50 19.3 71 0.0 0 0.0 2.2 7.9 309
30/06/2020 23:00 19.9 67 0.0 0 0.0 3.8 13.8 306
30/06/2020 23:10 20.1 69 0.0 0 0.0 4.4 15.9 309
30/06/2020 23:20 19.6 72 0.0 0 0.0 4.5 16.1 304
30/06/2020 23:30 19.2 75 0.0 0 0.0 3.7 13.3 306
30/06/2020 23:40 18.8 76 0.0 0 0.0 2.4 8.5 309
30/06/2020 23:50 18.7 76 0.0 0 0.0 1.9 6.7 283
Anterior Página 1 de 1 Siguiente

NOTA: Tipo de datos según el color:
   - Valores diarios o 10 minutos correctos
   - Valores diarios calculados a partir de un número de datos 10 minutos menor que 144 y mayor que 120, o de un número de datos semihorarios menor que 48 y mayor que 40 (caso de las estaciones de INTIA y del Ministerio)
   - Valores diez minutos estimados


Contacto        Enlaces        Aviso legal